createdAt,value
2018-04-26T00:00:22.269Z,21.50
2018-04-26T00:01:22.289Z,21.48
2018-04-26T00:02:22.396Z,21.45
2018-04-26T00:03:22.316Z,21.45
2018-04-26T00:04:22.329Z,21.45
2018-04-26T00:05:22.359Z,21.45
2018-04-26T00:06:22.491Z,21.45
2018-04-26T00:07:22.476Z,21.44
2018-04-26T00:08:22.406Z,21.43
2018-04-26T00:09:22.408Z,21.45
2018-04-26T00:10:22.430Z,21.48
2018-04-26T00:11:22.454Z,21.47
2018-04-26T00:12:22.616Z,21.47
2018-04-26T00:13:22.481Z,21.47
2018-04-26T00:14:22.497Z,21.47
2018-04-26T00:15:22.634Z,21.48
2018-04-26T00:16:22.530Z,21.48
2018-04-26T00:17:22.812Z,21.54
2018-04-26T00:18:22.562Z,21.44
2018-04-26T00:19:22.568Z,21.48
2018-04-26T00:20:22.590Z,21.48
2018-04-26T00:21:22.601Z,21.47
2018-04-26T00:22:22.724Z,21.43
2018-04-26T00:23:22.761Z,21.44
2018-04-26T00:24:22.775Z,21.51
2018-04-26T00:25:22.672Z,21.43
2018-04-26T00:26:22.674Z,21.48
2018-04-26T00:27:22.924Z,21.53
2018-04-26T00:28:22.713Z,21.50
2018-04-26T00:29:22.859Z,21.41
2018-04-26T00:30:22.873Z,21.44
2018-04-26T00:31:22.768Z,21.47
2018-04-26T00:32:22.890Z,21.48
2018-04-26T00:33:22.799Z,21.53
2018-04-26T00:34:23.009Z,21.48
2018-04-26T00:35:22.839Z,21.48
2018-04-26T00:36:22.839Z,21.54
2018-04-26T00:37:23.084Z,21.54
2018-04-26T00:38:23.005Z,21.48
2018-04-26T00:39:23.016Z,21.51
2018-04-26T00:40:22.904Z,21.51
2018-04-26T00:41:23.047Z,21.51
2018-04-26T00:42:23.164Z,21.50
2018-04-26T00:43:22.955Z,21.45
2018-04-26T00:44:22.977Z,21.45
2018-04-26T00:45:23.005Z,21.45
2018-04-26T00:46:23.012Z,21.47
2018-04-26T00:47:23.129Z,21.41
2018-04-26T00:48:23.036Z,21.43
2018-04-26T00:49:23.178Z,21.45
2018-04-26T00:50:23.074Z,21.35
2018-04-26T00:51:23.208Z,21.38
2018-04-26T00:52:23.324Z,21.35
2018-04-26T00:53:23.129Z,21.22
2018-04-26T00:54:23.257Z,21.17
2018-04-26T00:55:23.273Z,21.11
2018-04-26T00:56:23.165Z,20.98
2018-04-26T00:57:23.411Z,20.95
2018-04-26T00:58:23.205Z,20.92
2018-04-26T00:59:23.335Z,20.95
2018-04-26T01:00:23.235Z,20.83
2018-04-26T01:01:23.367Z,20.85
2018-04-26T01:02:23.486Z,20.74
2018-04-26T01:03:23.279Z,20.73
2018-04-26T01:04:23.289Z,20.63
2018-04-26T01:05:23.312Z,20.63
2018-04-26T01:06:23.323Z,20.53
2018-04-26T01:07:23.445Z,20.48
2018-04-26T01:08:23.352Z,20.48
2018-04-26T01:09:23.396Z,20.52
2018-04-26T01:10:23.383Z,20.39
2018-04-26T01:11:23.403Z,20.40
2018-04-26T01:12:23.646Z,20.40
2018-04-26T01:13:23.559Z,20.39
2018-04-26T01:14:23.439Z,20.36
2018-04-26T01:15:23.474Z,20.29
2018-04-26T01:16:23.606Z,20.34
2018-04-26T01:17:23.592Z,20.18
2018-04-26T01:18:23.515Z,20.17
2018-04-26T01:19:23.531Z,20.15
2018-04-26T01:20:23.547Z,20.03
2018-04-26T01:21:23.565Z,20.03
2018-04-26T01:22:23.674Z,20.07
2018-04-26T01:23:23.588Z,20.00
2018-04-26T01:24:23.603Z,19.92
2018-04-26T01:25:23.627Z,20.03
2018-04-26T01:26:23.638Z,20.00
2018-04-26T01:27:23.774Z,19.94
2018-04-26T01:28:23.893Z,19.92
2018-04-26T01:29:23.676Z,19.94
2018-04-26T01:30:23.708Z,19.94
2018-04-26T01:31:23.715Z,19.90
2018-04-26T01:32:23.851Z,19.85
2018-04-26T01:33:23.840Z,19.85
2018-04-26T01:34:23.887Z,19.82
2018-04-26T01:35:23.774Z,19.78
2018-04-26T01:36:23.796Z,19.85
2018-04-26T01:37:23.802Z,19.79
2018-04-26T01:38:23.983Z,19.70
2018-04-26T01:39:23.966Z,19.77
2018-04-26T01:40:23.975Z,19.74
2018-04-26T01:41:23.872Z,19.71
2018-04-26T01:42:23.882Z,19.74
2018-04-26T01:43:24.024Z,19.75
2018-04-26T01:44:24.013Z,19.78
2018-04-26T01:45:23.928Z,19.71
2018-04-26T01:46:23.950Z,19.77
2018-04-26T01:47:23.965Z,19.77
2018-04-26T01:48:24.103Z,19.72
2018-04-26T01:49:24.096Z,19.81
2018-04-26T01:50:24.006Z,19.66
2018-04-26T01:51:24.151Z,19.74
2018-04-26T01:52:24.034Z,19.66
2018-04-26T01:53:24.058Z,19.62
2018-04-26T01:54:24.292Z,19.59
2018-04-26T01:55:24.206Z,19.66
2018-04-26T01:56:24.093Z,19.67
2018-04-26T01:57:24.240Z,19.66
2018-04-26T01:58:24.143Z,19.60
2018-04-26T01:59:24.249Z,19.56
2018-04-26T02:00:24.285Z,19.47
2018-04-26T02:01:24.185Z,19.47
2018-04-26T02:02:24.195Z,19.39
2018-04-26T02:03:24.331Z,19.44
2018-04-26T02:04:24.445Z,19.41
2018-04-26T02:05:24.235Z,19.38
2018-04-26T02:06:24.377Z,19.34
2018-04-26T02:07:24.257Z,19.29
2018-04-26T02:08:24.406Z,19.22
2018-04-26T02:09:24.396Z,19.16
2018-04-26T02:10:24.317Z,19.23
2018-04-26T02:11:24.322Z,19.17
2018-04-26T02:12:24.350Z,19.19
2018-04-26T02:13:24.481Z,19.15
2018-04-26T02:14:24.474Z,19.12
2018-04-26T02:15:24.396Z,19.20
2018-04-26T02:16:24.529Z,19.17
2018-04-26T02:17:24.429Z,19.17
2018-04-26T02:18:24.557Z,19.16
2018-04-26T02:19:24.676Z,19.08
2018-04-26T02:20:24.474Z,19.09
2018-04-26T02:21:24.486Z,19.05
2018-04-26T02:22:24.492Z,19.04
2018-04-26T02:23:24.518Z,18.97
2018-04-26T02:24:24.673Z,18.94
2018-04-26T02:25:24.545Z,18.97
2018-04-26T02:26:24.678Z,18.94
2018-04-26T02:27:24.697Z,18.96
2018-04-26T02:28:24.712Z,18.91
2018-04-26T02:29:24.705Z,18.97
2018-04-26T02:30:24.615Z,18.96
2018-04-26T02:31:24.637Z,18.94
2018-04-26T02:32:24.773Z,18.98
2018-04-26T02:33:24.785Z,19.05
2018-04-26T02:34:24.700Z,19.11
2018-04-26T02:35:24.841Z,19.08
2018-04-26T02:36:24.830Z,19.17
2018-04-26T02:37:24.845Z,19.16
2018-04-26T02:38:24.739Z,19.15
2018-04-26T02:39:24.752Z,19.16
2018-04-26T02:40:24.991Z,19.16
2018-04-26T02:41:24.792Z,19.19
2018-04-26T02:42:24.799Z,19.11
2018-04-26T02:43:24.935Z,19.11
2018-04-26T02:44:24.833Z,19.12
2018-04-26T02:45:25.066Z,19.07
2018-04-26T02:46:24.864Z,19.15
2018-04-26T02:47:24.870Z,19.09
2018-04-26T02:48:24.892Z,19.08
2018-04-26T02:49:25.026Z,19.12
2018-04-26T02:50:24.916Z,19.12
2018-04-26T02:51:25.036Z,19.08
2018-04-26T02:52:24.947Z,19.12
2018-04-26T02:53:25.090Z,19.05
2018-04-26T02:54:25.102Z,19.05
2018-04-26T02:55:25.004Z,19.12
2018-04-26T02:56:25.231Z,19.01
2018-04-26T02:57:25.033Z,18.94
2018-04-26T02:58:25.034Z,19.07
2018-04-26T02:59:25.049Z,19.09
2018-04-26T03:00:25.065Z,19.09
2018-04-26T03:01:25.309Z,19.04
2018-04-26T03:02:25.222Z,18.97
2018-04-26T03:03:25.111Z,18.98
2018-04-26T03:04:25.251Z,18.92
2018-04-26T03:05:25.271Z,18.88
2018-04-26T03:06:25.383Z,18.88
2018-04-26T03:07:25.179Z,18.88
2018-04-26T03:08:25.295Z,18.82
2018-04-26T03:09:25.204Z,18.79
2018-04-26T03:10:25.228Z,18.85
2018-04-26T03:11:25.327Z,18.82
2018-04-26T03:12:25.253Z,18.85
2018-04-26T03:13:25.388Z,18.91
2018-04-26T03:14:25.290Z,18.88
2018-04-26T03:15:25.288Z,18.82
2018-04-26T03:16:25.532Z,18.83
2018-04-26T03:17:25.327Z,18.91
2018-04-26T03:18:25.335Z,18.79
2018-04-26T03:19:25.494Z,18.83
2018-04-26T03:20:25.367Z,18.86
2018-04-26T03:21:25.611Z,18.91
2018-04-26T03:22:25.523Z,18.76
2018-04-26T03:23:25.408Z,18.83
2018-04-26T03:24:25.434Z,18.96
2018-04-26T03:25:25.453Z,18.86
2018-04-26T03:26:25.571Z,18.88
2018-04-26T03:27:25.483Z,18.81
2018-04-26T03:28:25.610Z,18.79
2018-04-26T03:29:25.499Z,18.76
2018-04-26T03:30:25.643Z,18.82
2018-04-26T03:32:25.672Z,18.74
2018-04-26T03:33:25.688Z,18.76
2018-04-26T03:34:25.575Z,18.79
2018-04-26T03:35:25.588Z,18.66
2018-04-26T03:36:25.711Z,18.66
2018-04-26T03:37:25.792Z,18.60
2018-04-26T03:38:25.643Z,18.60
2018-04-26T03:39:25.778Z,18.64
2018-04-26T03:40:25.789Z,18.49
2018-04-26T03:41:25.806Z,18.61
2018-04-26T03:42:25.795Z,18.55
2018-04-26T03:43:25.836Z,18.51
2018-04-26T03:44:25.722Z,18.63
2018-04-26T03:45:25.746Z,18.51
2018-04-26T03:46:25.880Z,18.63
2018-04-26T03:47:25.927Z,18.61
2018-04-26T03:48:25.785Z,18.63
2018-04-26T03:49:25.799Z,18.58
2018-04-26T03:50:25.939Z,18.57
2018-04-26T03:51:25.828Z,18.60
2018-04-26T03:52:25.957Z,18.60
2018-04-26T03:53:25.984Z,18.58
2018-04-26T03:54:26.006Z,18.63
2018-04-26T03:55:25.901Z,18.55
2018-04-26T03:56:25.907Z,18.61
2018-04-26T03:57:25.912Z,18.67
2018-04-26T03:58:26.161Z,18.63
2018-04-26T03:59:26.073Z,18.64
2018-04-26T04:00:25.970Z,18.68
2018-04-26T04:01:26.105Z,18.68
2018-04-26T04:02:26.119Z,18.64
2018-04-26T04:03:26.109Z,18.64
2018-04-26T04:04:26.030Z,18.76
2018-04-26T04:05:26.045Z,18.76
2018-04-26T04:06:26.054Z,18.74
2018-04-26T04:07:26.074Z,18.76
2018-04-26T04:08:26.359Z,18.66
2018-04-26T04:09:26.222Z,18.74
2018-04-26T04:10:26.238Z,18.70
2018-04-26T04:11:26.124Z,18.70
2018-04-26T04:12:26.148Z,18.68
2018-04-26T04:13:26.434Z,18.67
2018-04-26T04:14:26.169Z,18.68
2018-04-26T04:15:26.197Z,18.61
2018-04-26T04:16:26.328Z,18.67
2018-04-26T04:17:26.340Z,18.68
2018-04-26T04:18:26.459Z,18.71
2018-04-26T04:19:26.369Z,18.67
2018-04-26T04:20:26.259Z,18.66
2018-04-26T04:21:26.275Z,18.61
2018-04-26T04:22:26.298Z,18.58
2018-04-26T04:23:26.402Z,18.52
2018-04-26T04:24:26.446Z,18.58
2018-04-26T04:25:26.460Z,18.48
2018-04-26T04:26:26.348Z,18.49
2018-04-26T04:27:26.376Z,18.49
2018-04-26T04:28:26.604Z,18.51
2018-04-26T04:29:26.520Z,18.46
2018-04-26T04:30:26.533Z,18.34
2018-04-26T04:31:26.418Z,18.34
2018-04-26T04:32:26.563Z,18.33
2018-04-26T04:33:26.679Z,18.33
2018-04-26T04:34:26.594Z,18.28
2018-04-26T04:35:26.495Z,18.30
2018-04-26T04:36:26.622Z,18.34
2018-04-26T04:37:26.518Z,18.33
2018-04-26T04:38:26.652Z,18.28
2018-04-26T04:39:26.768Z,18.30
2018-04-26T04:40:26.681Z,18.27
2018-04-26T04:41:26.695Z,18.30
2018-04-26T04:42:26.714Z,18.31
2018-04-26T04:43:26.725Z,18.30
2018-04-26T04:44:26.840Z,18.33
2018-04-26T04:45:26.755Z,18.28
2018-04-26T04:46:26.650Z,18.27
2018-04-26T04:47:26.784Z,18.24
2018-04-26T04:48:26.680Z,18.28
2018-04-26T04:49:26.814Z,18.27
2018-04-26T04:50:26.929Z,18.27
2018-04-26T04:51:26.715Z,18.27
2018-04-26T04:52:26.738Z,18.28
2018-04-26T04:53:26.872Z,18.30
2018-04-26T04:54:26.758Z,18.33
2018-04-26T04:55:26.774Z,18.34
2018-04-26T04:56:27.018Z,18.49
2018-04-26T04:57:26.934Z,18.37
2018-04-26T04:58:26.946Z,18.39
2018-04-26T04:59:26.963Z,18.52
2018-04-26T05:00:26.975Z,18.51
2018-04-26T05:01:27.091Z,18.52
2018-04-26T05:02:26.879Z,18.49
2018-04-26T05:03:26.902Z,18.46
2018-04-26T05:04:26.907Z,18.51
2018-04-26T05:05:26.921Z,18.48
2018-04-26T05:06:27.051Z,18.46
2018-04-26T05:07:27.126Z,18.48
2018-04-26T05:08:26.975Z,18.42
2018-04-26T05:09:27.106Z,18.41
2018-04-26T05:10:27.000Z,18.34
2018-04-26T05:11:27.239Z,18.36
2018-04-26T05:12:27.153Z,18.36
2018-04-26T05:13:27.165Z,18.36
2018-04-26T05:14:27.184Z,18.41
2018-04-26T05:15:27.066Z,18.28
2018-04-26T05:16:27.311Z,18.37
2018-04-26T05:17:27.110Z,18.31
2018-04-26T05:18:27.240Z,18.37
2018-04-26T05:19:27.136Z,18.36
2018-04-26T05:20:27.142Z,18.39
2018-04-26T05:21:27.389Z,18.39
2018-04-26T05:22:27.172Z,18.41
2018-04-26T05:23:27.196Z,18.41
2018-04-26T05:24:27.328Z,18.45
2018-04-26T05:25:27.345Z,18.43
2018-04-26T05:26:27.344Z,18.37
2018-04-26T05:27:27.244Z,18.36
2018-04-26T05:28:27.388Z,18.33
2018-04-26T05:29:27.272Z,18.37
2018-04-26T05:30:27.295Z,18.34
2018-04-26T05:31:27.416Z,18.36
2018-04-26T05:32:27.447Z,18.36
2018-04-26T05:33:27.459Z,18.36
2018-04-26T05:34:27.356Z,18.34
2018-04-26T05:35:27.489Z,18.28
2018-04-26T05:36:27.490Z,18.33
2018-04-26T05:37:27.390Z,18.28
2018-04-26T05:38:27.411Z,18.26
2018-04-26T05:39:27.546Z,18.34
2018-04-26T05:40:27.576Z,18.30
2018-04-26T05:41:27.547Z,18.30
2018-04-26T05:42:27.472Z,18.27
2018-04-26T05:43:27.604Z,18.24
2018-04-26T05:44:27.621Z,18.21
2018-04-26T05:45:27.509Z,18.28
2018-04-26T05:46:27.749Z,18.19
2018-04-26T05:47:27.688Z,18.27
2018-04-26T05:48:27.552Z,18.26
2018-04-26T05:49:27.698Z,18.19
2018-04-26T05:50:27.707Z,18.19
2018-04-26T05:51:27.821Z,18.18
2018-04-26T05:52:27.624Z,18.06
2018-04-26T05:53:27.634Z,18.12
2018-04-26T05:54:27.653Z,18.11
2018-04-26T05:55:27.783Z,18.02
2018-04-26T05:56:27.668Z,18.00
2018-04-26T05:57:27.792Z,17.98
2018-04-26T05:58:27.711Z,18.02
2018-04-26T05:59:27.839Z,17.97
2018-04-26T06:00:27.725Z,17.97
2018-04-26T06:01:27.868Z,17.90
2018-04-26T06:02:27.765Z,17.87
2018-04-26T06:03:27.918Z,17.93
2018-04-26T06:04:27.912Z,18.05
2018-04-26T06:05:27.813Z,18.05
2018-04-26T06:06:27.818Z,18.06
2018-04-26T06:07:27.865Z,18.15
2018-04-26T06:08:28.072Z,18.26
2018-04-26T06:09:27.865Z,18.19
2018-04-26T06:10:27.872Z,18.11
2018-04-26T06:11:27.887Z,18.27
2018-04-26T06:12:27.902Z,18.19
2018-04-26T06:13:28.015Z,18.18
2018-04-26T06:14:28.057Z,18.08
2018-04-26T06:15:28.072Z,18.12
2018-04-26T06:16:27.972Z,18.11
2018-04-26T06:17:28.099Z,18.08
2018-04-26T06:18:27.995Z,18.03
2018-04-26T06:19:28.115Z,17.97
2018-04-26T06:20:28.020Z,17.95
2018-04-26T06:21:28.031Z,18.00
2018-04-26T06:22:28.053Z,17.95
2018-04-26T06:23:28.062Z,17.98
2018-04-26T06:24:28.168Z,18.09
2018-04-26T06:25:28.100Z,18.11
2018-04-26T06:26:28.230Z,17.98
2018-04-26T06:27:28.116Z,18.00
2018-04-26T06:28:28.133Z,18.11
2018-04-26T06:29:28.261Z,18.18
2018-04-26T06:30:28.160Z,18.11
2018-04-26T06:31:28.189Z,18.08
2018-04-26T06:32:28.318Z,18.18
2018-04-26T06:33:28.332Z,18.15
2018-04-26T06:34:28.331Z,18.23
2018-04-26T06:35:28.358Z,18.21
2018-04-26T06:36:28.373Z,18.21
2018-04-26T06:37:28.262Z,18.18
2018-04-26T06:38:28.277Z,18.18
2018-04-26T06:39:28.415Z,18.09
2018-04-26T06:40:28.405Z,18.13
2018-04-26T06:41:28.447Z,18.11
2018-04-26T06:42:28.343Z,18.02
2018-04-26T06:43:28.475Z,18.15
2018-04-26T06:44:28.485Z,18.03
2018-04-26T06:45:28.651Z,18.11
2018-04-26T06:46:28.392Z,18.08
2018-04-26T06:47:28.409Z,18.11
2018-04-26T06:48:28.543Z,18.00
2018-04-26T06:49:28.430Z,18.03
2018-04-26T06:50:28.724Z,18.05
2018-04-26T06:51:28.464Z,18.05
2018-04-26T06:52:28.604Z,18.06
2018-04-26T06:53:28.519Z,18.03
2018-04-26T06:54:28.630Z,18.00
2018-04-26T06:55:28.670Z,17.87
2018-04-26T06:56:28.661Z,17.86
2018-04-26T06:57:28.560Z,17.91
2018-04-26T06:58:28.689Z,18.00
2018-04-26T06:59:28.587Z,17.91
2018-04-26T07:00:28.784Z,18.00
2018-04-26T07:01:28.733Z,17.95
2018-04-26T07:02:28.626Z,17.98
2018-04-26T07:03:28.634Z,17.93
2018-04-26T07:04:28.772Z,17.88
2018-04-26T07:05:28.667Z,18.02
2018-04-26T07:06:28.778Z,18.02
2018-04-26T07:07:28.816Z,17.98
2018-04-26T07:08:28.702Z,17.98
2018-04-26T07:09:28.716Z,18.06
2018-04-26T07:10:28.858Z,18.09
2018-04-26T07:11:28.760Z,18.08
2018-04-26T07:12:28.985Z,18.06
2018-04-26T07:13:28.773Z,18.12
2018-04-26T07:14:28.797Z,18.12
2018-04-26T07:15:28.823Z,18.11
2018-04-26T07:16:28.815Z,18.13
2018-04-26T07:17:28.981Z,18.23
2018-04-26T07:18:28.852Z,18.19
2018-04-26T07:19:28.860Z,18.21
2018-04-26T07:20:28.881Z,18.19
2018-04-26T07:21:28.902Z,18.12
2018-04-26T07:22:29.184Z,18.11
2018-04-26T07:23:29.043Z,18.11
2018-04-26T07:24:28.929Z,18.06
2018-04-26T07:25:28.950Z,18.13
2018-04-26T07:26:28.972Z,18.19
2018-04-26T07:27:29.088Z,18.28
2018-04-26T07:28:29.115Z,18.27
2018-04-26T07:29:29.131Z,18.31
2018-04-26T07:30:29.031Z,18.18
2018-04-26T07:31:29.165Z,18.16
2018-04-26T07:32:29.322Z,18.19
2018-04-26T07:33:29.067Z,18.21
2018-04-26T07:34:29.075Z,18.27
2018-04-26T07:35:29.215Z,18.21
2018-04-26T07:36:29.229Z,18.12
2018-04-26T07:37:29.270Z,18.15
2018-04-26T07:38:29.139Z,18.02
2018-04-26T07:39:29.144Z,18.11
2018-04-26T07:40:29.163Z,18.03
2018-04-26T07:41:29.307Z,18.09
2018-04-26T07:42:29.304Z,18.02
2018-04-26T07:43:29.329Z,17.95
2018-04-26T07:44:29.347Z,17.88
2018-04-26T07:45:29.363Z,17.84
2018-04-26T07:46:29.258Z,17.82
2018-04-26T07:47:29.410Z,17.87
2018-04-26T07:48:29.282Z,17.86
2018-04-26T07:49:29.417Z,17.78
2018-04-26T07:50:29.317Z,17.76
2018-04-26T07:51:29.330Z,17.76
2018-04-26T07:52:29.487Z,17.78
2018-04-26T07:53:29.481Z,17.78
2018-04-26T07:54:29.375Z,17.75
2018-04-26T07:55:29.383Z,17.78
2018-04-26T07:56:29.516Z,17.75
2018-04-26T07:57:29.413Z,17.73
2018-04-26T07:58:29.568Z,17.72
2018-04-26T07:59:29.559Z,17.75
2018-04-26T08:00:29.446Z,17.73
2018-04-26T08:01:29.501Z,17.78
2018-04-26T08:02:29.476Z,17.72
2018-04-26T08:03:29.499Z,17.78
2018-04-26T08:04:29.657Z,17.76
2018-04-26T08:05:29.524Z,17.76
2018-04-26T08:06:29.660Z,17.72
2018-04-26T08:07:29.561Z,17.78
2018-04-26T08:08:29.557Z,17.76
2018-04-26T08:09:29.740Z,17.71
2018-04-26T08:10:29.719Z,17.69
2018-04-26T08:11:29.729Z,17.73
2018-04-26T08:12:29.630Z,17.80
2018-04-26T08:13:29.636Z,17.78
2018-04-26T08:14:29.806Z,17.73
2018-04-26T08:15:29.662Z,17.82
2018-04-26T08:16:29.683Z,17.79
2018-04-26T08:17:29.689Z,17.84
2018-04-26T08:18:29.830Z,17.80
2018-04-26T08:19:29.716Z,17.76
2018-04-26T08:20:30.012Z,17.75
2018-04-26T08:21:29.753Z,17.84
2018-04-26T08:22:29.781Z,17.84
2018-04-26T08:23:29.789Z,17.75
2018-04-26T08:24:29.806Z,17.78
2018-04-26T08:25:29.957Z,17.79
2018-04-26T08:26:29.821Z,17.75
2018-04-26T08:27:29.833Z,17.78
2018-04-26T08:28:29.854Z,17.73
2018-04-26T08:29:29.988Z,17.68
2018-04-26T08:30:29.913Z,17.60
2018-04-26T08:31:30.116Z,17.66
2018-04-26T08:32:30.032Z,17.63
2018-04-26T08:33:29.928Z,17.60
2018-04-26T08:34:29.932Z,17.69
2018-04-26T08:35:30.074Z,17.65
2018-04-26T08:36:30.061Z,17.54
2018-04-26T08:37:29.992Z,17.60
2018-04-26T08:38:29.992Z,17.57
2018-04-26T08:39:30.018Z,17.50
2018-04-26T08:40:30.028Z,17.49
2018-04-26T08:41:30.317Z,17.50
2018-04-26T08:42:30.046Z,17.53
2018-04-26T08:43:30.058Z,17.54
2018-04-26T08:44:30.088Z,17.49
2018-04-26T08:45:30.123Z,17.57
2018-04-26T08:46:30.382Z,17.49
2018-04-26T08:47:30.117Z,17.56
2018-04-26T08:48:30.142Z,17.54
2018-04-26T08:49:30.274Z,17.53
2018-04-26T08:50:30.160Z,17.53
2018-04-26T08:51:30.332Z,17.52
2018-04-26T08:52:30.315Z,17.52
2018-04-26T08:53:30.329Z,17.44
2018-04-26T08:54:30.231Z,17.41
2018-04-26T08:55:30.257Z,17.54
2018-04-26T08:56:30.346Z,17.41
2018-04-26T08:57:30.257Z,17.39
2018-04-26T08:58:30.287Z,17.49
2018-04-26T08:59:30.415Z,17.50
2018-04-26T09:00:30.311Z,17.44
2018-04-26T09:01:30.546Z,17.47
2018-04-26T09:02:30.336Z,17.41
2018-04-26T09:03:30.346Z,17.42
2018-04-26T09:04:30.365Z,17.38
2018-04-26T09:05:30.372Z,17.39
2018-04-26T09:06:30.664Z,17.37
2018-04-26T09:07:30.526Z,17.37
2018-04-26T09:08:30.540Z,17.39
2018-04-26T09:09:30.444Z,17.34
2018-04-26T09:10:30.575Z,17.31
2018-04-26T09:11:30.569Z,17.28
2018-04-26T09:12:30.469Z,17.34
2018-04-26T09:13:30.614Z,17.34
2018-04-26T09:14:30.500Z,17.37
2018-04-26T09:15:30.643Z,17.31
2018-04-26T09:16:30.537Z,17.28
2018-04-26T09:17:30.820Z,17.35
2018-04-26T09:18:30.557Z,17.37
2018-04-26T09:19:30.578Z,17.37
2018-04-26T09:20:30.587Z,17.32
2018-04-26T09:21:30.724Z,17.34
2018-04-26T09:22:30.891Z,17.32
2018-04-26T09:23:30.640Z,17.31
2018-04-26T09:24:30.770Z,17.32
2018-04-26T09:25:30.785Z,17.34
2018-04-26T09:26:30.676Z,17.35
2018-04-26T09:27:30.834Z,17.34
2018-04-26T09:28:30.828Z,17.24
2018-04-26T09:29:30.839Z,17.41
2018-04-26T09:30:30.857Z,17.42
2018-04-26T09:31:30.747Z,17.56
2018-04-26T09:32:31.030Z,17.47
2018-04-26T09:33:30.898Z,17.41
2018-04-26T09:34:30.908Z,17.42
2018-04-26T09:35:30.810Z,17.39
2018-04-26T09:36:30.821Z,17.39
2018-04-26T09:37:31.050Z,17.42
2018-04-26T09:38:30.852Z,17.46
2018-04-26T09:39:30.851Z,17.52
2018-04-26T09:40:30.992Z,17.53
2018-04-26T09:41:30.887Z,17.52
2018-04-26T09:42:30.995Z,17.63
2018-04-26T09:43:31.036Z,17.71
2018-04-26T09:44:30.926Z,17.79
2018-04-26T09:45:31.065Z,17.84
2018-04-26T09:46:30.967Z,17.73
2018-04-26T09:47:31.242Z,17.76
2018-04-26T09:48:31.111Z,17.71
2018-04-26T09:49:31.008Z,17.87
2018-04-26T09:50:31.106Z,17.91
2018-04-26T09:51:31.149Z,18.05
2018-04-26T09:52:31.150Z,17.97
2018-04-26T09:53:31.053Z,18.02
2018-04-26T09:54:31.194Z,18.15
2018-04-26T09:55:31.210Z,18.24
2018-04-26T09:56:31.103Z,18.24
2018-04-26T09:57:31.272Z,18.39
2018-04-26T09:58:31.269Z,18.57
2018-04-26T09:59:31.264Z,18.61
2018-04-26T10:00:31.155Z,18.67
2018-04-26T10:01:31.294Z,18.73
2018-04-26T10:02:31.469Z,18.81
2018-04-26T10:03:31.203Z,18.83
2018-04-26T10:04:31.337Z,18.97
2018-04-26T10:05:31.234Z,19.01
2018-04-26T10:06:31.372Z,19.07
2018-04-26T10:07:31.420Z,19.11
2018-04-26T10:08:31.268Z,19.22
2018-04-26T10:09:31.294Z,19.24
2018-04-26T10:10:31.315Z,19.35
2018-04-26T10:11:31.441Z,19.34
2018-04-26T10:12:31.456Z,19.41
2018-04-26T10:13:31.352Z,19.49
2018-04-26T10:14:31.358Z,19.52
2018-04-26T10:15:31.381Z,19.56
2018-04-26T10:16:31.385Z,19.66
2018-04-26T10:17:31.629Z,19.67
2018-04-26T10:18:31.419Z,19.64
2018-04-26T10:19:31.441Z,19.74
2018-04-26T10:20:31.448Z,19.84
2018-04-26T10:21:31.465Z,19.78
2018-04-26T10:22:31.706Z,19.85
2018-04-26T10:23:31.500Z,19.93
2018-04-26T10:24:31.511Z,19.92
2018-04-26T10:25:31.651Z,20.00
2018-04-26T10:26:31.667Z,20.03
2018-04-26T10:27:31.651Z,20.00
2018-04-26T10:28:31.699Z,20.11
2018-04-26T10:29:31.612Z,20.15
2018-04-26T10:30:31.731Z,20.27
2018-04-26T10:31:31.629Z,20.36
2018-04-26T10:32:31.783Z,20.42
2018-04-26T10:33:31.677Z,20.44
2018-04-26T10:34:31.791Z,20.60
2018-04-26T10:35:31.682Z,20.75
2018-04-26T10:36:31.703Z,20.73
2018-04-26T10:37:31.823Z,20.74
2018-04-26T10:38:31.854Z,20.88
2018-04-26T10:39:31.755Z,20.93
2018-04-26T10:40:31.764Z,20.98
2018-04-26T10:41:31.789Z,21.07
2018-04-26T10:42:31.900Z,21.11
2018-04-26T10:43:31.936Z,21.19
2018-04-26T10:44:31.832Z,21.20
2018-04-26T10:45:31.849Z,21.32
2018-04-26T10:46:31.985Z,21.38
2018-04-26T10:47:31.974Z,21.30
2018-04-26T10:48:31.898Z,21.38
2018-04-26T10:49:31.908Z,21.29
2018-04-26T10:50:31.924Z,21.30
2018-04-26T10:51:31.946Z,21.33
2018-04-26T10:52:32.186Z,21.37
2018-04-26T10:53:31.973Z,21.40
2018-04-26T10:54:32.115Z,21.48
2018-04-26T10:55:32.007Z,21.48
2018-04-26T10:56:32.037Z,21.58
2018-04-26T10:57:32.192Z,21.63
2018-04-26T10:58:32.186Z,21.54
2018-04-26T10:59:32.080Z,21.58
2018-04-26T11:00:32.085Z,21.60
2018-04-26T11:01:32.122Z,21.62
2018-04-26T11:02:32.401Z,21.69
2018-04-26T11:03:32.141Z,21.80
2018-04-26T11:04:32.170Z,21.78
2018-04-26T11:05:32.193Z,21.75
2018-04-26T11:06:32.320Z,21.80
2018-04-26T11:07:32.371Z,21.81
2018-04-26T11:08:32.229Z,21.84
2018-04-26T11:09:32.241Z,21.88
2018-04-26T11:10:32.266Z,22.16
2018-04-26T11:11:32.290Z,22.15
2018-04-26T11:12:32.402Z,22.14
2018-04-26T11:13:32.311Z,22.23
2018-04-26T11:14:32.334Z,22.21
2018-04-26T11:15:32.451Z,22.43
2018-04-26T11:16:32.369Z,22.30
2018-04-26T11:17:32.379Z,22.31
2018-04-26T11:18:32.502Z,22.28
2018-04-26T11:19:32.541Z,22.47
2018-04-26T11:20:32.561Z,22.41
2018-04-26T11:21:32.578Z,22.40
2018-04-26T11:22:32.479Z,22.52
2018-04-26T11:23:32.808Z,22.65
2018-04-26T11:24:32.514Z,22.62
2018-04-26T11:25:32.644Z,22.68
2018-04-26T11:26:32.691Z,22.74
2018-04-26T11:27:32.559Z,22.83
2018-04-26T11:28:32.800Z,22.93
2018-04-26T11:29:32.589Z,23.13
2018-04-26T11:30:32.618Z,23.23
2018-04-26T11:31:32.625Z,23.42
2018-04-26T11:32:32.648Z,23.49
2018-04-26T11:33:32.823Z,23.48
2018-04-26T11:34:32.752Z,23.66
2018-04-26T11:35:32.712Z,23.71
2018-04-26T11:36:32.715Z,23.89
2018-04-26T11:37:32.738Z,24.01
2018-04-26T11:38:32.901Z,24.04
2018-04-26T11:39:32.890Z,24.06
2018-04-26T11:40:32.911Z,24.03
2018-04-26T11:41:32.928Z,24.01
2018-04-26T11:42:32.948Z,24.11
2018-04-26T11:43:32.947Z,24.21
2018-04-26T11:44:32.856Z,24.34
2018-04-26T11:45:32.881Z,24.38
2018-04-26T11:46:32.893Z,24.53
2018-04-26T11:47:32.917Z,24.66
2018-04-26T11:48:33.157Z,24.81
2018-04-26T11:49:33.073Z,24.92
2018-04-26T11:50:33.091Z,25.07
2018-04-26T11:51:32.993Z,25.24
2018-04-26T11:52:33.059Z,25.44
2018-04-26T11:53:33.246Z,25.46
2018-04-26T11:54:33.165Z,25.58
2018-04-26T11:55:33.062Z,25.70
2018-04-26T11:56:33.075Z,25.89
2018-04-26T11:57:33.094Z,26.03
2018-04-26T11:58:33.272Z,26.10
2018-04-26T11:59:33.134Z,26.16
2018-04-26T12:00:33.152Z,26.18
2018-04-26T12:01:33.183Z,26.18
2018-04-26T12:02:33.264Z,26.30
2018-04-26T12:03:33.318Z,26.48
2018-04-26T12:04:33.228Z,26.64
2018-04-26T12:05:33.247Z,26.67
2018-04-26T12:06:33.395Z,26.88
2018-04-26T12:07:33.285Z,27.11
2018-04-26T12:08:33.456Z,27.52
2018-04-26T12:09:33.332Z,27.83
2018-04-26T12:10:33.357Z,27.88
2018-04-26T12:11:33.489Z,28.04
2018-04-26T12:12:33.511Z,28.12
2018-04-26T12:13:33.682Z,28.31
2018-04-26T12:14:33.550Z,28.12
2018-04-26T12:15:33.455Z,28.19
2018-04-26T12:16:33.475Z,28.15
2018-04-26T12:17:33.607Z,28.19
2018-04-26T12:18:33.793Z,28.12
2018-04-26T12:19:33.526Z,28.31
2018-04-26T12:20:33.667Z,28.47
2018-04-26T12:21:33.570Z,28.68
2018-04-26T12:22:33.596Z,28.75
2018-04-26T12:23:33.704Z,28.67
2018-04-26T12:24:33.749Z,28.67
2018-04-26T12:25:33.648Z,28.68
2018-04-26T12:26:33.792Z,28.60
2018-04-26T12:27:33.815Z,28.46
2018-04-26T12:28:33.932Z,28.35
2018-04-26T12:29:33.855Z,28.27
2018-04-26T12:30:33.876Z,28.06
2018-04-26T12:31:33.893Z,27.88
2018-04-26T12:32:33.918Z,27.76
2018-04-26T12:33:34.087Z,27.71
2018-04-26T12:34:33.854Z,27.73
2018-04-26T12:35:33.847Z,27.57
2018-04-26T12:36:33.999Z,27.66
2018-04-26T12:37:33.892Z,27.94
2018-04-26T12:38:34.023Z,28.15
2018-04-26T12:39:33.931Z,28.28
2018-04-26T12:40:33.975Z,28.40
2018-04-26T12:41:33.979Z,28.47
2018-04-26T12:42:33.994Z,28.43
2018-04-26T12:43:34.246Z,28.38
2018-04-26T12:44:34.034Z,28.35
2018-04-26T12:45:34.061Z,28.19
2018-04-26T12:46:34.105Z,28.30
2018-04-26T12:47:34.104Z,28.22
2018-04-26T12:48:34.273Z,28.27
2018-04-26T12:49:34.267Z,28.30
2018-04-26T12:50:34.288Z,28.38
2018-04-26T12:51:34.304Z,28.27
2018-04-26T12:52:34.202Z,28.10
2018-04-26T12:53:34.335Z,28.06